sensor_id;sensor_type;location;lat;lon;timestamp;pressure;altitude;pressure_sealevel;temperature;humidity
44751;BME280;30477;48.224;11.470;2023-05-16T00:00:50;95663.16;;;11.14;73.20
44751;BME280;30477;48.224;11.470;2023-05-16T00:03:18;95660.25;;;11.17;73.60
44751;BME280;30477;48.224;11.470;2023-05-16T00:05:43;95651.88;;;11.23;73.42
44751;BME280;30477;48.224;11.470;2023-05-16T00:08:09;95649.78;;;11.27;73.34
44751;BME280;30477;48.224;11.470;2023-05-16T00:10:34;95655.50;;;11.30;73.40
44751;BME280;30477;48.224;11.470;2023-05-16T00:12:59;95655.81;;;11.35;73.48
44751;BME280;30477;48.224;11.470;2023-05-16T00:15:26;95653.75;;;11.39;73.21
44751;BME280;30477;48.224;11.470;2023-05-16T00:17:53;95653.59;;;11.41;72.77
44751;BME280;30477;48.224;11.470;2023-05-16T00:20:23;95656.50;;;11.37;72.71
44751;BME280;30477;48.224;11.470;2023-05-16T00:22:49;95657.75;;;11.33;72.95
44751;BME280;30477;48.224;11.470;2023-05-16T00:25:14;95651.31;;;11.37;72.66
44751;BME280;30477;48.224;11.470;2023-05-16T00:27:40;95653.69;;;11.31;72.48
44751;BME280;30477;48.224;11.470;2023-05-16T00:30:06;95652.44;;;11.35;72.82
44751;BME280;30477;48.224;11.470;2023-05-16T00:32:31;95644.50;;;11.36;72.91
44751;BME280;30477;48.224;11.470;2023-05-16T00:34:57;95649.78;;;11.27;72.78
44751;BME280;30477;48.224;11.470;2023-05-16T00:37:23;95648.19;;;11.26;73.08
44751;BME280;30477;48.224;11.470;2023-05-16T00:39:48;95646.09;;;11.29;73.20
44751;BME280;30477;48.224;11.470;2023-05-16T00:42:14;95644.31;;;11.30;73.12
44751;BME280;30477;48.224;11.470;2023-05-16T00:44:39;95646.34;;;11.18;73.26
44751;BME280;30477;48.224;11.470;2023-05-16T00:47:05;95642.09;;;11.09;73.36
44751;BME280;30477;48.224;11.470;2023-05-16T00:49:31;95644.34;;;11.04;73.61
44751;BME280;30477;48.224;11.470;2023-05-16T00:51:57;95632.66;;;11.00;73.58
44751;BME280;30477;48.224;11.470;2023-05-16T00:54:22;95635.69;;;10.95;73.78
44751;BME280;30477;48.224;11.470;2023-05-16T00:56:51;95636.47;;;10.87;73.55
44751;BME280;30477;48.224;11.470;2023-05-16T00:59:18;95633.88;;;10.87;74.38
44751;BME280;30477;48.224;11.470;2023-05-16T01:01:45;95635.50;;;10.88;74.23
44751;BME280;30477;48.224;11.470;2023-05-16T01:04:11;95634.19;;;10.84;74.31
44751;BME280;30477;48.224;11.470;2023-05-16T01:06:36;95633.56;;;10.90;74.33
44751;BME280;30477;48.224;11.470;2023-05-16T01:09:02;95639.75;;;10.97;74.28
44751;BME280;30477;48.224;11.470;2023-05-16T01:27:44;95637.88;;;11.08;73.52
44751;BME280;30477;48.224;11.470;2023-05-16T01:30:14;95642.25;;;11.07;73.33
44751;BME280;30477;48.224;11.470;2023-05-16T01:32:41;95633.97;;;11.04;73.00
44751;BME280;30477;48.224;11.470;2023-05-16T01:35:09;95629.91;;;11.01;73.47
44751;BME280;30477;48.224;11.470;2023-05-16T01:37:40;95628.28;;;11.00;73.46
44751;BME280;30477;48.224;11.470;2023-05-16T01:40:21;95620.97;;;10.95;73.43
44751;BME280;30477;48.224;11.470;2023-05-16T01:42:49;95616.41;;;10.89;73.69
44751;BME280;30477;48.224;11.470;2023-05-16T01:45:23;95612.25;;;10.96;73.69
44751;BME280;30477;48.224;11.470;2023-05-16T01:48:05;95608.50;;;10.91;73.41
44751;BME280;30477;48.224;11.470;2023-05-16T01:50:33;95612.06;;;10.90;73.63
44751;BME280;30477;48.224;11.470;2023-05-16T01:53:07;95623.88;;;10.92;73.33
44751;BME280;30477;48.224;11.470;2023-05-16T01:55:47;95626.97;;;10.96;73.69
44751;BME280;30477;48.224;11.470;2023-05-16T01:58:15;95620.97;;;10.95;73.63
44751;BME280;30477;48.224;11.470;2023-05-16T02:00:41;95616.13;;;10.92;73.27
44751;BME280;30477;48.224;11.470;2023-05-16T02:03:07;95617.25;;;10.90;73.25
44751;BME280;30477;48.224;11.470;2023-05-16T02:05:32;95620.25;;;10.85;73.47
44751;BME280;30477;48.224;11.470;2023-05-16T02:07:58;95618.66;;;10.84;73.70
44751;BME280;30477;48.224;11.470;2023-05-16T02:10:24;95625.75;;;10.82;73.41
44751;BME280;30477;48.224;11.470;2023-05-16T02:12:50;95619.91;;;10.80;73.43
44751;BME280;30477;48.224;11.470;2023-05-16T02:15:15;95615.69;;;10.79;73.52
44751;BME280;30477;48.224;11.470;2023-05-16T02:17:41;95610.03;;;10.75;73.86
44751;BME280;30477;48.224;11.470;2023-05-16T02:20:07;95612.09;;;10.72;73.93
44751;BME280;30477;48.224;11.470;2023-05-16T02:22:36;95615.94;;;10.68;73.90
44751;BME280;30477;48.224;11.470;2023-05-16T02:25:03;95621.13;;;10.68;74.19
44751;BME280;30477;48.224;11.470;2023-05-16T02:27:29;95616.09;;;10.66;74.15
44751;BME280;30477;48.224;11.470;2023-05-16T02:29:54;95622.78;;;10.77;74.27
44751;BME280;30477;48.224;11.470;2023-05-16T02:32:20;95621.19;;;10.76;73.92
44751;BME280;30477;48.224;11.470;2023-05-16T02:34:46;95619.25;;;10.78;73.73
44751;BME280;30477;48.224;11.470;2023-05-16T02:37:11;95633.47;;;10.74;73.67
44751;BME280;30477;48.224;11.470;2023-05-16T02:39:36;95633.59;;;10.72;73.89
44751;BME280;30477;48.224;11.470;2023-05-16T02:42:02;95626.16;;;10.69;73.91
44751;BME280;30477;48.224;11.470;2023-05-16T02:44:28;95626.97;;;10.70;73.97
44751;BME280;30477;48.224;11.470;2023-05-16T02:46:53;95633.78;;;10.71;74.23
44751;BME280;30477;48.224;11.470;2023-05-16T02:49:19;95625.56;;;10.75;73.72
44751;BME280;30477;48.224;11.470;2023-05-16T02:51:44;95631.81;;;10.73;73.55
44751;BME280;30477;48.224;11.470;2023-05-16T02:54:10;95630.22;;;10.72;73.62
44751;BME280;30477;48.224;11.470;2023-05-16T02:56:35;95633.72;;;10.63;73.75
44751;BME280;30477;48.224;11.470;2023-05-16T02:59:01;95633.34;;;10.57;74.06
44751;BME280;30477;48.224;11.470;2023-05-16T03:01:28;95636.59;;;10.60;73.93
44751;BME280;30477;48.224;11.470;2023-05-16T03:03:53;95635.34;;;10.64;74.09
44751;BME280;30477;48.224;11.470;2023-05-16T03:06:18;95632.22;;;10.60;73.79
44751;BME280;30477;48.224;11.470;2023-05-16T03:08:44;95632.22;;;10.60;74.23
44751;BME280;30477;48.224;11.470;2023-05-16T03:11:09;95636.91;;;10.56;74.10
44751;BME280;30477;48.224;11.470;2023-05-16T03:13:35;95632.81;;;10.54;74.23
44751;BME280;30477;48.224;11.470;2023-05-16T03:16:00;95634.25;;;10.48;74.37
44751;BME280;30477;48.224;11.470;2023-05-16T03:18:26;95630.41;;;10.52;74.55
44751;BME280;30477;48.224;11.470;2023-05-16T03:20:51;95631.72;;;10.56;74.43
44751;BME280;30477;48.224;11.470;2023-05-16T03:23:20;95627.16;;;10.50;74.24
44751;BME280;30477;48.224;11.470;2023-05-16T03:25:46;95631.28;;;10.43;74.61
44751;BME280;30477;48.224;11.470;2023-05-16T03:28:11;95625.31;;;10.43;74.32
44751;BME280;30477;48.224;11.470;2023-05-16T03:30:36;95625.38;;;10.33;74.68
44751;BME280;30477;48.224;11.470;2023-05-16T03:33:02;95624.03;;;10.29;74.78
44751;BME280;30477;48.224;11.470;2023-05-16T03:35:31;95625.00;;;10.28;74.87
44751;BME280;30477;48.224;11.470;2023-05-16T03:37:57;95622.78;;;10.33;74.87
44751;BME280;30477;48.224;11.470;2023-05-16T03:40:22;95629.97;;;10.39;74.97
44751;BME280;30477;48.224;11.470;2023-05-16T03:42:48;95631.94;;;10.45;75.07
44751;BME280;30477;48.224;11.470;2023-05-16T03:45:13;95621.78;;;10.44;74.71
44751;BME280;30477;48.224;11.470;2023-05-16T03:47:38;95625.09;;;10.36;74.59
44751;BME280;30477;48.224;11.470;2023-05-16T03:50:04;95624.97;;;10.38;74.89
44751;BME280;30477;48.224;11.470;2023-05-16T03:52:30;95629.28;;;10.37;74.74
44751;BME280;30477;48.224;11.470;2023-05-16T03:54:55;95632.34;;;10.32;74.25
44751;BME280;30477;48.224;11.470;2023-05-16T03:57:21;95630.47;;;10.25;74.66
44751;BME280;30477;48.224;11.470;2023-05-16T03:59:46;95625.59;;;10.22;74.78
44751;BME280;30477;48.224;11.470;2023-05-16T04:02:11;95626.84;;;10.18;75.02
44751;BME280;30477;48.224;11.470;2023-05-16T04:04:37;95631.56;;;10.22;75.22
44751;BME280;30477;48.224;11.470;2023-05-16T04:07:02;95624.66;;;10.23;75.20
44751;BME280;30477;48.224;11.470;2023-05-16T04:09:28;95626.69;;;10.19;75.15
44751;BME280;30477;48.224;11.470;2023-05-16T04:11:53;95626.69;;;10.19;75.33
44751;BME280;30477;48.224;11.470;2023-05-16T04:14:24;95627.44;;;10.11;75.22
44751;BME280;30477;48.224;11.470;2023-05-16T04:16:50;95629.88;;;10.13;75.55
44751;BME280;30477;48.224;11.470;2023-05-16T04:19:15;95618.28;;;10.17;75.73
44751;BME280;30477;48.224;11.470;2023-05-16T04:21:41;95626.56;;;10.21;75.67
44751;BME280;30477;48.224;11.470;2023-05-16T04:24:06;95622.78;;;10.15;75.20
44751;BME280;30477;48.224;11.470;2023-05-16T04:26:32;95628.03;;;10.23;75.66
44751;BME280;30477;48.224;11.470;2023-05-16T04:28:57;95630.47;;;10.25;75.58
44751;BME280;30477;48.224;11.470;2023-05-16T04:31:24;95628.81;;;10.33;75.43
44751;BME280;30477;48.224;11.470;2023-05-16T04:33:50;95634.66;;;10.35;75.53
44751;BME280;30477;48.224;11.470;2023-05-16T04:36:16;95627.03;;;10.34;75.34
44751;BME280;30477;48.224;11.470;2023-05-16T04:38:41;95623.22;;;10.28;75.25
44751;BME280;30477;48.224;11.470;2023-05-16T04:41:07;95618.81;;;10.21;75.49
44751;BME280;30477;48.224;11.470;2023-05-16T04:43:32;95626.25;;;10.24;75.65
44751;BME280;30477;48.224;11.470;2023-05-16T04:45:58;95621.00;;;10.15;75.67
44751;BME280;30477;48.224;11.470;2023-05-16T04:48:23;95631.94;;;10.09;75.98
44751;BME280;30477;48.224;11.470;2023-05-16T04:50:49;95635.28;;;10.20;76.41
44751;BME280;30477;48.224;11.470;2023-05-16T04:53:15;95634.00;;;10.24;75.82
44751;BME280;30477;48.224;11.470;2023-05-16T04:55:40;95633.81;;;10.35;76.12
44751;BME280;30477;48.224;11.470;2023-05-16T04:58:06;95627.38;;;10.39;75.76
44751;BME280;30477;48.224;11.470;2023-05-16T05:00:32;95637.59;;;10.41;75.69
44751;BME280;30477;48.224;11.470;2023-05-16T05:02:57;95637.44;;;10.42;75.57
44751;BME280;30477;48.224;11.470;2023-05-16T05:05:25;95647.84;;;10.50;75.52
44751;BME280;30477;48.224;11.470;2023-05-16T05:07:51;95645.09;;;10.52;75.21
44751;BME280;30477;48.224;11.470;2023-05-16T05:10:16;95644.00;;;10.54;75.07
44751;BME280;30477;48.224;11.470;2023-05-16T05:12:42;95636.31;;;10.63;75.21
44751;BME280;30477;48.224;11.470;2023-05-16T05:15:07;95638.13;;;10.70;75.26
44751;BME280;30477;48.224;11.470;2023-05-16T05:17:33;95631.41;;;10.77;74.92
44751;BME280;30477;48.224;11.470;2023-05-16T05:19:58;95643.22;;;10.80;74.76
44751;BME280;30477;48.224;11.470;2023-05-16T05:22:24;95639.41;;;10.92;74.77
44751;BME280;30477;48.224;11.470;2023-05-16T05:24:52;95642.97;;;10.91;74.51
44751;BME280;30477;48.224;11.470;2023-05-16T05:27:17;95642.81;;;10.93;74.13
44751;BME280;30477;48.224;11.470;2023-05-16T05:29:43;95643.94;;;10.90;74.22
44751;BME280;30477;48.224;11.470;2023-05-16T05:32:08;95644.09;;;10.89;73.97
44751;BME280;30477;48.224;11.470;2023-05-16T05:34:33;95648.44;;;10.88;74.03
44751;BME280;30477;48.224;11.470;2023-05-16T05:36:59;95641.41;;;10.99;74.15
44751;BME280;30477;48.224;11.470;2023-05-16T05:39:24;95642.66;;;10.94;73.84
44751;BME280;30477;48.224;11.470;2023-05-16T05:41:50;95639.63;;;10.99;73.92
44751;BME280;30477;48.224;11.470;2023-05-16T05:44:15;95633.91;;;10.95;73.74
44751;BME280;30477;48.224;11.470;2023-05-16T05:46:41;95639.56;;;10.91;74.16
44751;BME280;30477;48.224;11.470;2023-05-16T05:49:07;95632.53;;;10.83;74.02
44751;BME280;30477;48.224;11.470;2023-05-16T05:51:32;95629.00;;;10.84;74.21
44751;BME280;30477;48.224;11.470;2023-05-16T05:53:57;95631.03;;;10.72;73.99
44751;BME280;30477;48.224;11.470;2023-05-16T05:56:23;95632.59;;;10.65;74.19
44751;BME280;30477;48.224;11.470;2023-05-16T05:58:51;95635.72;;;10.69;74.52
44751;BME280;30477;48.224;11.470;2023-05-16T06:01:17;95631.03;;;10.72;74.57
44751;BME280;30477;48.224;11.470;2023-05-16T06:03:42;95639.25;;;10.68;74.30
44751;BME280;30477;48.224;11.470;2023-05-16T06:06:08;95630.53;;;10.69;74.65
44751;BME280;30477;48.224;11.470;2023-05-16T06:08:33;95634.38;;;10.65;74.61
44751;BME280;30477;48.224;11.470;2023-05-16T06:10:59;95630.81;;;10.66;74.69
44751;BME280;30477;48.224;11.470;2023-05-16T06:13:24;95635.72;;;10.69;74.77
44751;BME280;30477;48.224;11.470;2023-05-16T06:15:53;95633.25;;;10.67;74.82
44751;BME280;30477;48.224;11.470;2023-05-16T06:18:22;95637.31;;;10.70;74.77
44751;BME280;30477;48.224;11.470;2023-05-16T06:20:47;95622.66;;;10.79;74.94
44751;BME280;30477;48.224;11.470;2023-05-16T06:23:12;95624.13;;;10.81;75.11
44751;BME280;30477;48.224;11.470;2023-05-16T06:25:38;95620.78;;;10.89;75.19
44751;BME280;30477;48.224;11.470;2023-05-16T06:28:03;95623.28;;;10.99;75.38
44751;BME280;30477;48.224;11.470;2023-05-16T06:30:29;95629.91;;;11.01;75.33
44751;BME280;30477;48.224;11.470;2023-05-16T06:32:54;95620.13;;;11.13;75.59
44751;BME280;30477;48.224;11.470;2023-05-16T06:35:20;95625.16;;;11.23;75.23
44751;BME280;30477;48.224;11.470;2023-05-16T06:37:45;95631.81;;;11.25;75.04
44751;BME280;30477;48.224;11.470;2023-05-16T06:40:11;95637.81;;;11.26;74.99
44751;BME280;30477;48.224;11.470;2023-05-16T06:42:37;95632.28;;;11.21;74.77
44751;BME280;30477;48.224;11.470;2023-05-16T06:45:02;95624.41;;;11.30;74.91
44751;BME280;30477;48.224;11.470;2023-05-16T06:47:28;95622.84;;;11.46;74.83
44751;BME280;30477;48.224;11.470;2023-05-16T06:49:53;95628.84;;;11.89;74.96
44751;BME280;30477;48.224;11.470;2023-05-16T06:52:18;95627.13;;;12.63;74.49
44751;BME280;30477;48.224;11.470;2023-05-16T06:54:44;95618.78;;;13.00;73.61
44751;BME280;30477;48.224;11.470;2023-05-16T06:57:09;95616.03;;;13.02;72.19
44751;BME280;30477;48.224;11.470;2023-05-16T06:59:35;95621.25;;;12.94;71.58
44751;BME280;30477;48.224;11.470;2023-05-16T07:02:00;95629.22;;;12.68;71.49
44751;BME280;30477;48.224;11.470;2023-05-16T07:04:26;95626.31;;;12.46;71.31
44751;BME280;30477;48.224;11.470;2023-05-16T07:06:51;95624.69;;;12.37;71.71
44751;BME280;30477;48.224;11.470;2023-05-16T07:09:17;95626.47;;;12.36;71.42
44751;BME280;30477;48.224;11.470;2023-05-16T07:11:43;95629.88;;;12.29;71.29
44751;BME280;30477;48.224;11.470;2023-05-16T07:14:08;95626.28;;;12.30;71.65
44751;BME280;30477;48.224;11.470;2023-05-16T07:16:34;95624.84;;;12.35;71.89
44751;BME280;30477;48.224;11.470;2023-05-16T07:18:59;95632.78;;;12.34;71.62
44751;BME280;30477;48.224;11.470;2023-05-16T07:21:25;95627.59;;;12.42;71.63
44751;BME280;30477;48.224;11.470;2023-05-16T07:23:50;95625.00;;;12.58;71.68
44751;BME280;30477;48.224;11.470;2023-05-16T07:26:16;95624.66;;;12.62;71.16
44751;BME280;30477;48.224;11.470;2023-05-16T07:28:41;95626.31;;;12.63;71.29
44751;BME280;30477;48.224;11.470;2023-05-16T07:31:07;95637.00;;;12.59;71.21
44751;BME280;30477;48.224;11.470;2023-05-16T07:33:32;95625.97;;;12.57;70.89
44751;BME280;30477;48.224;11.470;2023-05-16T07:35:58;95628.25;;;12.61;70.81
44751;BME280;30477;48.224;11.470;2023-05-16T07:38:23;95633.09;;;12.64;70.96
44751;BME280;30477;48.224;11.470;2023-05-16T07:40:49;95632.16;;;12.73;71.34
44751;BME280;30477;48.224;11.470;2023-05-16T07:43:14;95638.63;;;12.77;71.08
44751;BME280;30477;48.224;11.470;2023-05-16T07:45:40;95637.81;;;12.76;71.12
44751;BME280;30477;48.224;11.470;2023-05-16T07:48:05;95636.50;;;12.72;71.16
44751;BME280;30477;48.224;11.470;2023-05-16T07:50:31;95638.00;;;12.67;70.54
44751;BME280;30477;48.224;11.470;2023-05-16T07:52:56;95639.78;;;12.58;70.81
44751;BME280;30477;48.224;11.470;2023-05-16T07:55:21;95644.31;;;12.56;71.10
44751;BME280;30477;48.224;11.470;2023-05-16T07:57:48;95654.22;;;12.52;71.30
44751;BME280;30477;48.224;11.470;2023-05-16T08:00:14;95658.09;;;12.48;71.10
44751;BME280;30477;48.224;11.470;2023-05-16T08:02:40;95657.47;;;12.46;71.13
44751;BME280;30477;48.224;11.470;2023-05-16T08:05:06;95652.91;;;12.40;71.47
44751;BME280;30477;48.224;11.470;2023-05-16T08:07:31;95654.03;;;12.37;71.46
44751;BME280;30477;48.224;11.470;2023-05-16T08:09:57;95650.00;;;12.35;71.52
44751;BME280;30477;48.224;11.470;2023-05-16T08:12:23;95655.84;;;12.37;72.01
44751;BME280;30477;48.224;11.470;2023-05-16T08:14:48;95658.09;;;12.40;71.68
44751;BME280;30477;48.224;11.470;2023-05-16T08:17:14;95662.34;;;12.41;71.83
44751;BME280;30477;48.224;11.470;2023-05-16T08:19:39;95666.88;;;12.39;72.02
44751;BME280;30477;48.224;11.470;2023-05-16T08:22:06;95668.31;;;12.33;72.19
44751;BME280;30477;48.224;11.470;2023-05-16T08:24:31;95670.44;;;12.38;72.31
44751;BME280;30477;48.224;11.470;2023-05-16T08:26:56;95660.53;;;12.42;72.71
44751;BME280;30477;48.224;11.470;2023-05-16T08:29:22;95666.53;;;12.42;72.38
44751;BME280;30477;48.224;11.470;2023-05-16T08:31:47;95672.53;;;12.34;72.62
44751;BME280;30477;48.224;11.470;2023-05-16T08:34:13;95673.34;;;12.27;72.93
44751;BME280;30477;48.224;11.470;2023-05-16T08:36:38;95668.28;;;12.17;72.84
44751;BME280;30477;48.224;11.470;2023-05-16T08:39:03;95670.56;;;12.12;73.29
44751;BME280;30477;48.224;11.470;2023-05-16T08:41:29;95668.75;;;12.04;73.60
44751;BME280;30477;48.224;11.470;2023-05-16T08:43:55;95668.56;;;11.97;73.55
44751;BME280;30477;48.224;11.470;2023-05-16T08:46:22;95667.09;;;12.03;73.57
44751;BME280;30477;48.224;11.470;2023-05-16T08:48:51;95663.88;;;12.09;74.32
44751;BME280;30477;48.224;11.470;2023-05-16T08:51:18;95666.03;;;12.14;74.06
44751;BME280;30477;48.224;11.470;2023-05-16T08:53:49;95667.47;;;12.16;74.18
44751;BME280;30477;48.224;11.470;2023-05-16T08:56:16;95670.72;;;12.18;74.18
44751;BME280;30477;48.224;11.470;2023-05-16T08:58:42;95673.19;;;12.20;74.63
44751;BME280;30477;48.224;11.470;2023-05-16T09:01:08;95675.91;;;12.18;74.79
44751;BME280;30477;48.224;11.470;2023-05-16T09:03:37;95673.81;;;12.14;74.99
44751;BME280;30477;48.224;11.470;2023-05-16T09:06:06;95670.06;;;12.16;75.12
44751;BME280;30477;48.224;11.470;2023-05-16T09:08:31;95661.97;;;12.19;75.36
44751;BME280;30477;48.224;11.470;2023-05-16T09:10:57;95666.34;;;12.19;75.41
44751;BME280;30477;48.224;11.470;2023-05-16T09:13:24;95664.09;;;12.16;75.22
44751;BME280;30477;48.224;11.470;2023-05-16T09:16:13;95655.81;;;12.21;75.90
44751;BME280;30477;48.224;11.470;2023-05-16T09:18:42;95663.25;;;12.24;75.83
44751;BME280;30477;48.224;11.470;2023-05-16T09:21:09;95658.25;;;12.14;75.53
44751;BME280;30477;48.224;11.470;2023-05-16T09:23:34;95648.34;;;12.17;75.80
44751;BME280;30477;48.224;11.470;2023-05-16T09:26:00;95645.09;;;12.24;75.63
44751;BME280;30477;48.224;11.470;2023-05-16T09:28:26;95646.56;;;12.26;75.39
44751;BME280;30477;48.224;11.470;2023-05-16T09:30:52;95642.22;;;12.35;75.43
44751;BME280;30477;48.224;11.470;2023-05-16T09:33:25;95662.47;;;12.39;75.50
44751;BME280;30477;48.224;11.470;2023-05-16T09:35:58;95657.78;;;12.43;75.71
44751;BME280;30477;48.224;11.470;2023-05-16T09:38:25;95666.22;;;12.45;76.06
44751;BME280;30477;48.224;11.470;2023-05-16T09:40:52;95667.69;;;12.48;76.71
44751;BME280;30477;48.224;11.470;2023-05-16T09:43:21;95666.22;;;12.45;76.32
44751;BME280;30477;48.224;11.470;2023-05-16T09:45:47;95664.91;;;12.49;77.16
44751;BME280;30477;48.224;11.470;2023-05-16T09:48:14;95651.13;;;12.57;77.33
44751;BME280;30477;48.224;11.470;2023-05-16T09:50:40;95654.22;;;12.52;76.98
44751;BME280;30477;48.224;11.470;2023-05-16T09:53:12;95652.44;;;12.53;77.14
44751;BME280;30477;48.224;11.470;2023-05-16T09:55:38;95659.91;;;12.64;77.45
44751;BME280;30477;48.224;11.470;2023-05-16T09:58:03;95666.22;;;12.62;77.97
44751;BME280;30477;48.224;11.470;2023-05-16T10:00:30;95655.19;;;12.68;77.84
44751;BME280;30477;48.224;11.470;2023-05-16T10:02:57;95663.31;;;12.56;77.74
44751;BME280;30477;48.224;11.470;2023-05-16T10:05:26;95659.41;;;12.44;77.55
44751;BME280;30477;48.224;11.470;2023-05-16T10:07:54;95662.78;;;12.36;77.54
44751;BME280;30477;48.224;11.470;2023-05-16T10:10:20;95654.84;;;12.38;77.75
44751;BME280;30477;48.224;11.470;2023-05-16T10:12:46;95660.84;;;12.38;77.83
44751;BME280;30477;48.224;11.470;2023-05-16T10:15:13;95664.28;;;12.39;78.12
44751;BME280;30477;48.224;11.470;2023-05-16T10:17:38;95664.94;;;12.41;78.12
44751;BME280;30477;48.224;11.470;2023-05-16T10:20:06;95665.09;;;12.48;78.47
44751;BME280;30477;48.224;11.470;2023-05-16T10:22:34;95667.84;;;12.46;78.49
44751;BME280;30477;48.224;11.470;2023-05-16T10:25:07;95680.16;;;12.44;78.54
44751;BME280;30477;48.224;11.470;2023-05-16T10:27:35;95677.91;;;12.41;78.35
44751;BME280;30477;48.224;11.470;2023-05-16T10:30:00;95681.47;;;12.40;78.32
44751;BME280;30477;48.224;11.470;2023-05-16T10:32:26;95676.25;;;12.40;78.79
44751;BME280;30477;48.224;11.470;2023-05-16T10:34:53;95691.53;;;12.35;78.64
44751;BME280;30477;48.224;11.470;2023-05-16T10:37:20;95685.03;;;12.31;78.51
44751;BME280;30477;48.224;11.470;2023-05-16T10:39:46;95690.88;;;12.33;78.84
44751;BME280;30477;48.224;11.470;2023-05-16T10:42:12;95691.53;;;12.35;79.18
44751;BME280;30477;48.224;11.470;2023-05-16T10:44:42;95694.13;;;12.35;79.14
44751;BME280;30477;48.224;11.470;2023-05-16T10:47:08;95680.31;;;12.34;79.13
44751;BME280;30477;48.224;11.470;2023-05-16T10:49:33;95676.09;;;12.33;79.42
44751;BME280;30477;48.224;11.470;2023-05-16T10:52:09;95679.50;;;12.34;79.15
44751;BME280;30477;48.224;11.470;2023-05-16T10:54:36;95679.84;;;12.39;79.12
44751;BME280;30477;48.224;11.470;2023-05-16T10:57:10;95687.00;;;12.45;79.26
44751;BME280;30477;48.224;11.470;2023-05-16T10:59:54;95680.97;;;12.45;78.87
44751;BME280;30477;48.224;11.470;2023-05-16T11:02:31;95678.38;;;12.45;78.73
44751;BME280;30477;48.224;11.470;2023-05-16T11:05:00;95681.81;;;12.45;79.08
44751;BME280;30477;48.224;11.470;2023-05-16T11:07:31;95673.03;;;12.54;79.07
44751;BME280;30477;48.224;11.470;2023-05-16T11:10:03;95675.78;;;12.53;78.91
44751;BME280;30477;48.224;11.470;2023-05-16T11:12:43;95671.88;;;12.49;78.63
44751;BME280;30477;48.224;11.470;2023-05-16T11:15:30;95678.06;;;12.56;78.99
44751;BME280;30477;48.224;11.470;2023-05-16T11:18:13;95671.59;;;12.68;78.97
44751;BME280;30477;48.224;11.470;2023-05-16T11:20:39;95668.16;;;12.68;79.31
44751;BME280;30477;48.224;11.470;2023-05-16T11:25:41;95660.88;;;12.79;79.28
44751;BME280;30477;48.224;11.470;2023-05-16T11:28:07;95654.69;;;12.72;79.17
44751;BME280;30477;48.224;11.470;2023-05-16T11:30:34;95666.06;;;12.71;79.12
44751;BME280;30477;48.224;11.470;2023-05-16T11:33:00;95670.44;;;12.71;78.78
44751;BME280;30477;48.224;11.470;2023-05-16T11:35:25;95666.88;;;12.72;78.60
44751;BME280;30477;48.224;11.470;2023-05-16T11:37:51;95671.09;;;12.81;78.68
44751;BME280;30477;48.224;11.470;2023-05-16T11:40:16;95666.53;;;12.91;78.69
44751;BME280;30477;48.224;11.470;2023-05-16T11:42:45;95661.97;;;12.93;78.49
44751;BME280;30477;48.224;11.470;2023-05-16T11:45:15;95662.31;;;12.98;78.26
44751;BME280;30477;48.224;11.470;2023-05-16T11:47:44;95650.25;;;13.06;78.09
44751;BME280;30477;48.224;11.470;2023-05-16T11:50:13;95660.66;;;13.14;78.08
44751;BME280;30477;48.224;11.470;2023-05-16T11:52:42;95657.22;;;13.22;78.17
44751;BME280;30477;48.224;11.470;2023-05-16T11:55:09;95662.44;;;13.30;77.83
44751;BME280;30477;48.224;11.470;2023-05-16T11:57:39;95661.28;;;13.40;77.63
44751;BME280;30477;48.224;11.470;2023-05-16T12:00:18;95671.50;;;13.42;77.49
44751;BME280;30477;48.224;11.470;2023-05-16T12:02:45;95665.94;;;13.53;77.63
44751;BME280;30477;48.224;11.470;2023-05-16T12:05:17;95669.97;;;13.56;76.88
44751;BME280;30477;48.224;11.470;2023-05-16T12:07:45;95666.41;;;13.57;76.39
44751;BME280;30477;48.224;11.470;2023-05-16T12:10:12;95656.94;;;13.64;76.21
44751;BME280;30477;48.224;11.470;2023-05-16T12:12:40;95655.00;;;13.66;75.94
44751;BME280;30477;48.224;11.470;2023-05-16T12:15:08;95659.56;;;13.64;76.28
44751;BME280;30477;48.224;11.470;2023-05-16T12:17:35;95657.28;;;13.69;76.08
44751;BME280;30477;48.224;11.470;2023-05-16T12:20:02;95659.22;;;13.67;76.33
44751;BME280;30477;48.224;11.470;2023-05-16T12:22:34;95642.94;;;13.73;76.10
44751;BME280;30477;48.224;11.470;2023-05-16T12:25:29;95647.84;;;13.68;76.19
44751;BME280;30477;48.224;11.470;2023-05-16T12:28:02;95650.88;;;13.80;76.03
44751;BME280;30477;48.224;11.470;2023-05-16T12:30:30;95657.53;;;13.83;76.13
44751;BME280;30477;48.224;11.470;2023-05-16T12:33:00;95649.59;;;13.76;76.44
44751;BME280;30477;48.224;11.470;2023-05-16T12:35:30;95652.19;;;13.76;76.83
44751;BME280;30477;48.224;11.470;2023-05-16T12:37:56;95652.97;;;13.85;76.94
44751;BME280;30477;48.224;11.470;2023-05-16T12:40:22;95648.44;;;13.78;76.71
44751;BME280;30477;48.224;11.470;2023-05-16T12:42:53;95646.84;;;13.77;76.86
44751;BME280;30477;48.224;11.470;2023-05-16T12:45:18;95643.84;;;13.89;76.84
44751;BME280;30477;48.224;11.470;2023-05-16T12:47:45;95648.25;;;13.88;76.86
44751;BME280;30477;48.224;11.470;2023-05-16T12:50:12;95648.38;;;13.95;76.88
44751;BME280;30477;48.224;11.470;2023-05-16T12:52:58;95642.00;;;13.97;77.17
44751;BME280;30477;48.224;11.470;2023-05-16T12:55:24;95641.19;;;13.97;77.08
44751;BME280;30477;48.224;11.470;2023-05-16T12:57:50;95644.44;;;13.99;76.94
44751;BME280;30477;48.224;11.470;2023-05-16T13:00:19;95638.44;;;13.98;77.39
44751;BME280;30477;48.224;11.470;2023-05-16T13:02:46;95640.50;;;14.03;77.34
44751;BME280;30477;48.224;11.470;2023-05-16T13:05:12;95646.03;;;14.00;76.81
44751;BME280;30477;48.224;11.470;2023-05-16T13:07:38;95649.38;;;13.86;76.34